sensor_id;sensor_type;location;lat;lon;timestamp;pressure;altitude;pressure_sealevel;temperature;humidity
7441;BME280;29616;51.950;8.572;2023-04-21T00:00:07;99935.78;;;10.70;100.00
7441;BME280;29616;51.950;8.572;2023-04-21T00:02:38;99938.81;;;10.67;100.00
7441;BME280;29616;51.950;8.572;2023-04-21T00:05:08;99939.25;;;10.72;100.00
7441;BME280;29616;51.950;8.572;2023-04-21T00:07:38;99933.84;;;10.63;100.00
7441;BME280;29616;51.950;8.572;2023-04-21T00:10:10;99936.34;;;10.74;100.00
7441;BME280;29616;51.950;8.572;2023-04-21T00:12:39;99928.63;;;10.69;100.00
7441;BME280;29616;51.950;8.572;2023-04-21T00:15:09;99921.91;;;10.64;100.00
7441;BME280;29616;51.950;8.572;2023-04-21T00:17:40;99928.69;;;10.77;100.00
7441;BME280;29616;51.950;8.572;2023-04-21T00:20:11;99928.31;;;10.72;100.00
7441;BME280;29616;51.950;8.572;2023-04-21T00:22:40;99929.13;;;10.73;100.00
7441;BME280;29616;51.950;8.572;2023-04-21T00:25:08;99920.97;;;10.55;100.00
7441;BME280;29616;51.950;8.572;2023-04-21T00:27:36;99922.69;;;10.56;100.00
7441;BME280;29616;51.950;8.572;2023-04-21T00:30:07;99908.38;;;10.62;100.00
7441;BME280;29616;51.950;8.572;2023-04-21T00:32:37;99914.03;;;10.61;100.00
7441;BME280;29616;51.950;8.572;2023-04-21T00:35:09;99891.22;;;10.52;100.00
7441;BME280;29616;51.950;8.572;2023-04-21T00:37:38;99914.56;;;10.64;100.00
7441;BME280;29616;51.950;8.572;2023-04-21T00:40:10;99901.28;;;10.69;100.00
7441;BME280;29616;51.950;8.572;2023-04-21T00:42:40;99894.97;;;10.51;100.00
7441;BME280;29616;51.950;8.572;2023-04-21T00:45:10;99902.22;;;10.60;100.00
7441;BME280;29616;51.950;8.572;2023-04-21T00:47:40;99894.56;;;10.46;100.00
7441;BME280;29616;51.950;8.572;2023-04-21T00:50:12;99900.13;;;10.54;100.00
7441;BME280;29616;51.950;8.572;2023-04-21T00:52:42;99899.41;;;10.52;100.00
7441;BME280;29616;51.950;8.572;2023-04-21T00:55:14;99901.66;;;10.57;100.00
7441;BME280;29616;51.950;8.572;2023-04-21T00:57:42;99905.97;;;10.59;100.00
7441;BME280;29616;51.950;8.572;2023-04-21T01:00:14;99910.81;;;10.65;100.00
7441;BME280;29616;51.950;8.572;2023-04-21T01:02:43;99905.75;;;10.53;100.00
7441;BME280;29616;51.950;8.572;2023-04-21T01:05:15;99899.50;;;10.60;100.00
7441;BME280;29616;51.950;8.572;2023-04-21T01:07:44;99908.69;;;10.59;100.00
7441;BME280;29616;51.950;8.572;2023-04-21T01:10:15;99908.97;;;10.48;100.00
7441;BME280;29616;51.950;8.572;2023-04-21T01:12:46;99905.50;;;10.46;100.00
7441;BME280;29616;51.950;8.572;2023-04-21T01:15:17;99897.56;;;10.35;100.00
7441;BME280;29616;51.950;8.572;2023-04-21T01:17:45;99912.69;;;10.47;100.00
7441;BME280;29616;51.950;8.572;2023-04-21T01:20:17;99904.50;;;10.29;100.00
7441;BME280;29616;51.950;8.572;2023-04-21T01:22:46;99909.41;;;10.44;100.00
7441;BME280;29616;51.950;8.572;2023-04-21T01:25:18;99894.06;;;10.43;100.00
7441;BME280;29616;51.950;8.572;2023-04-21T01:27:48;99896.72;;;10.34;100.00
7441;BME280;29616;51.950;8.572;2023-04-21T01:30:20;99898.56;;;10.52;100.00
7441;BME280;29616;51.950;8.572;2023-04-21T01:32:50;99895.03;;;10.59;100.00
7441;BME280;29616;51.950;8.572;2023-04-21T01:35:19;99890.84;;;10.47;100.00
7441;BME280;29616;51.950;8.572;2023-04-21T01:37:50;99904.72;;;10.71;100.00
7441;BME280;29616;51.950;8.572;2023-04-21T01:40:20;99890.13;;;10.63;100.00
7441;BME280;29616;51.950;8.572;2023-04-21T01:42:49;99893.47;;;10.74;100.00
7441;BME280;29616;51.950;8.572;2023-04-21T01:45:17;99894.97;;;10.69;100.00
7441;BME280;29616;51.950;8.572;2023-04-21T01:47:47;99898.38;;;10.71;100.00
7441;BME280;29616;51.950;8.572;2023-04-21T01:50:16;99899.25;;;10.71;100.00
7441;BME280;29616;51.950;8.572;2023-04-21T01:52:44;99886.81;;;10.77;100.00
7441;BME280;29616;51.950;8.572;2023-04-21T01:55:15;99885.28;;;11.00;100.00
7441;BME280;29616;51.950;8.572;2023-04-21T01:57:44;99866.25;;;10.90;100.00
7441;BME280;29616;51.950;8.572;2023-04-21T02:00:14;99877.06;;;11.00;100.00
7441;BME280;29616;51.950;8.572;2023-04-21T02:02:43;99872.84;;;11.06;100.00
7441;BME280;29616;51.950;8.572;2023-04-21T02:05:13;99881.09;;;11.14;100.00
7441;BME280;29616;51.950;8.572;2023-04-21T02:07:41;99883.22;;;11.02;100.00
7441;BME280;29616;51.950;8.572;2023-04-21T02:10:12;99873.91;;;11.13;100.00
7441;BME280;29616;51.950;8.572;2023-04-21T02:12:43;99885.31;;;11.08;100.00
7441;BME280;29616;51.950;8.572;2023-04-21T02:15:11;99882.75;;;11.07;100.00
7441;BME280;29616;51.950;8.572;2023-04-21T02:17:40;99839.53;;;10.84;100.00
7441;BME280;29616;51.950;8.572;2023-04-21T02:20:10;99885.13;;;11.02;100.00
7441;BME280;29616;51.950;8.572;2023-04-21T02:22:40;99886.81;;;11.03;100.00
7441;BME280;29616;51.950;8.572;2023-04-21T02:25:08;99883.69;;;11.23;100.00
7441;BME280;29616;51.950;8.572;2023-04-21T02:27:38;99886.66;;;11.30;100.00
7441;BME280;29616;51.950;8.572;2023-04-21T02:30:09;99888.03;;;11.34;100.00
7441;BME280;29616;51.950;8.572;2023-04-21T02:32:38;99877.03;;;11.26;100.00
7441;BME280;29616;51.950;8.572;2023-04-21T02:35:08;99894.88;;;11.30;100.00
7441;BME280;29616;51.950;8.572;2023-04-21T02:37:37;99894.75;;;11.14;100.00
7441;BME280;29616;51.950;8.572;2023-04-21T02:40:07;99893.38;;;11.10;100.00
7441;BME280;29616;51.950;8.572;2023-04-21T02:42:35;99897.56;;;10.96;100.00
7441;BME280;29616;51.950;8.572;2023-04-21T02:45:08;99882.66;;;10.90;100.00
7441;BME280;29616;51.950;8.572;2023-04-21T02:47:38;99864.09;;;10.76;100.00
7441;BME280;29616;51.950;8.572;2023-04-21T02:50:09;99908.97;;;10.91;100.00
7441;BME280;29616;51.950;8.572;2023-04-21T02:52:41;99913.75;;;10.89;100.00
7441;BME280;29616;51.950;8.572;2023-04-21T02:55:11;99914.59;;;10.90;100.00
7441;BME280;29616;51.950;8.572;2023-04-21T02:57:40;99910.72;;;10.75;100.00
7441;BME280;29616;51.950;8.572;2023-04-21T03:00:12;99917.38;;;10.72;100.00
7441;BME280;29616;51.950;8.572;2023-04-21T03:02:42;99919.38;;;10.70;100.00
7441;BME280;29616;51.950;8.572;2023-04-21T03:05:15;99906.63;;;10.53;100.00
7441;BME280;29616;51.950;8.572;2023-04-21T03:07:43;99914.81;;;10.53;100.00
7441;BME280;29616;51.950;8.572;2023-04-21T03:10:13;99922.25;;;10.43;100.00
7441;BME280;29616;51.950;8.572;2023-04-21T03:12:41;99918.47;;;10.44;100.00
7441;BME280;29616;51.950;8.572;2023-04-21T03:15:13;99903.03;;;10.35;100.00
7441;BME280;29616;51.950;8.572;2023-04-21T03:17:42;99920.03;;;10.29;100.00
7441;BME280;29616;51.950;8.572;2023-04-21T03:20:12;99925.56;;;10.19;100.00
7441;BME280;29616;51.950;8.572;2023-04-21T03:22:41;99925.13;;;9.97;100.00
7441;BME280;29616;51.950;8.572;2023-04-21T03:25:10;99923.09;;;9.99;100.00
7441;BME280;29616;51.950;8.572;2023-04-21T03:27:39;99925.69;;;10.00;100.00
7441;BME280;29616;51.950;8.572;2023-04-21T03:30:09;99927.84;;;9.97;100.00
7441;BME280;29616;51.950;8.572;2023-04-21T03:32:39;99928.22;;;9.84;100.00
7441;BME280;29616;51.950;8.572;2023-04-21T03:35:08;99917.19;;;9.76;100.00
7441;BME280;29616;51.950;8.572;2023-04-21T03:37:38;99921.38;;;9.70;100.00
7441;BME280;29616;51.950;8.572;2023-04-21T03:40:07;99926.16;;;9.68;100.00
7441;BME280;29616;51.950;8.572;2023-04-21T03:42:36;99927.75;;;9.61;100.00
7441;BME280;29616;51.950;8.572;2023-04-21T03:45:08;99923.50;;;9.49;100.00
7441;BME280;29616;51.950;8.572;2023-04-21T03:47:39;99925.78;;;9.54;100.00
7441;BME280;29616;51.950;8.572;2023-04-21T03:50:09;99938.94;;;9.58;100.00
7441;BME280;29616;51.950;8.572;2023-04-21T03:52:38;99931.06;;;9.55;100.00
7441;BME280;29616;51.950;8.572;2023-04-21T03:55:07;99934.31;;;9.41;100.00
7441;BME280;29616;51.950;8.572;2023-04-21T03:57:38;99939.81;;;9.22;100.00
7441;BME280;29616;51.950;8.572;2023-04-21T04:00:10;99927.75;;;9.25;100.00
7441;BME280;29616;51.950;8.572;2023-04-21T04:02:40;99928.44;;;9.36;100.00
7441;BME280;29616;51.950;8.572;2023-04-21T04:05:08;99938.44;;;9.45;100.00
7441;BME280;29616;51.950;8.572;2023-04-21T04:07:36;99920.78;;;9.49;100.00
7441;BME280;29616;51.950;8.572;2023-04-21T04:10:07;99925.53;;;9.47;100.00
7441;BME280;29616;51.950;8.572;2023-04-21T04:12:36;99916.72;;;9.53;100.00
7441;BME280;29616;51.950;8.572;2023-04-21T04:15:07;99924.78;;;9.55;100.00
7441;BME280;29616;51.950;8.572;2023-04-21T04:17:35;99915.22;;;9.41;100.00
7441;BME280;29616;51.950;8.572;2023-04-21T04:20:07;99930.47;;;9.61;100.00
7441;BME280;29616;51.950;8.572;2023-04-21T04:22:37;99929.47;;;9.62;100.00
7441;BME280;29616;51.950;8.572;2023-04-21T04:25:07;99920.69;;;9.68;100.00
7441;BME280;29616;51.950;8.572;2023-04-21T04:27:35;99915.34;;;9.77;100.00
7441;BME280;29616;51.950;8.572;2023-04-21T04:30:04;99918.06;;;9.77;100.00
7441;BME280;29616;51.950;8.572;2023-04-21T04:32:34;99920.03;;;9.84;100.00
7441;BME280;29616;51.950;8.572;2023-04-21T04:35:08;99904.09;;;9.80;100.00
7441;BME280;29616;51.950;8.572;2023-04-21T04:37:39;99914.28;;;9.87;100.00
7441;BME280;29616;51.950;8.572;2023-04-21T04:40:08;99919.56;;;9.89;100.00
7441;BME280;29616;51.950;8.572;2023-04-21T04:42:39;99912.47;;;9.96;100.00
7441;BME280;29616;51.950;8.572;2023-04-21T04:45:08;99907.00;;;9.96;100.00
7441;BME280;29616;51.950;8.572;2023-04-21T04:47:38;99908.13;;;10.03;100.00
7441;BME280;29616;51.950;8.572;2023-04-21T04:50:09;99908.53;;;10.08;100.00
7441;BME280;29616;51.950;8.572;2023-04-21T04:52:37;99910.09;;;10.10;100.00
7441;BME280;29616;51.950;8.572;2023-04-21T04:55:07;99912.06;;;10.18;100.00
7441;BME280;29616;51.950;8.572;2023-04-21T04:57:35;99918.88;;;10.31;100.00
7441;BME280;29616;51.950;8.572;2023-04-21T05:00:06;99906.16;;;10.40;100.00
7441;BME280;29616;51.950;8.572;2023-04-21T05:02:38;99911.78;;;10.56;100.00
7441;BME280;29616;51.950;8.572;2023-04-21T05:05:08;99917.63;;;10.61;100.00
7441;BME280;29616;51.950;8.572;2023-04-21T05:07:36;99914.78;;;10.71;100.00
7441;BME280;29616;51.950;8.572;2023-04-21T05:10:06;99923.88;;;10.97;100.00
7441;BME280;29616;51.950;8.572;2023-04-21T05:12:35;99927.16;;;11.01;100.00
7441;BME280;29616;51.950;8.572;2023-04-21T05:15:04;99922.22;;;11.30;100.00
7441;BME280;29616;51.950;8.572;2023-04-21T05:17:34;99928.28;;;11.41;100.00
7441;BME280;29616;51.950;8.572;2023-04-21T05:20:05;99929.88;;;11.78;100.00
7441;BME280;29616;51.950;8.572;2023-04-21T05:22:37;99925.13;;;11.96;100.00
7441;BME280;29616;51.950;8.572;2023-04-21T05:25:10;99937.56;;;12.24;100.00
7441;BME280;29616;51.950;8.572;2023-04-21T05:27:42;99938.56;;;12.23;100.00
7441;BME280;29616;51.950;8.572;2023-04-21T05:30:11;99938.09;;;12.36;100.00
7441;BME280;29616;51.950;8.572;2023-04-21T05:32:40;99916.50;;;12.33;100.00
7441;BME280;29616;51.950;8.572;2023-04-21T05:35:10;99932.47;;;12.45;100.00
7441;BME280;29616;51.950;8.572;2023-04-21T05:37:40;99937.63;;;12.72;100.00
7441;BME280;29616;51.950;8.572;2023-04-21T05:40:09;99942.06;;;12.65;100.00
7441;BME280;29616;51.950;8.572;2023-04-21T05:42:37;99939.16;;;12.75;100.00
7441;BME280;29616;51.950;8.572;2023-04-21T05:45:07;99942.25;;;12.96;100.00
7441;BME280;29616;51.950;8.572;2023-04-21T05:47:37;99930.94;;;12.99;100.00
7441;BME280;29616;51.950;8.572;2023-04-21T05:50:07;99935.03;;;13.44;100.00
7441;BME280;29616;51.950;8.572;2023-04-21T05:52:37;99932.94;;;13.62;100.00
7441;BME280;29616;51.950;8.572;2023-04-21T05:55:07;99936.28;;;13.80;100.00
7441;BME280;29616;51.950;8.572;2023-04-21T05:57:35;99941.84;;;13.64;100.00
7441;BME280;29616;51.950;8.572;2023-04-21T06:00:05;99936.63;;;13.77;100.00
7441;BME280;29616;51.950;8.572;2023-04-21T06:02:36;99928.47;;;14.08;100.00
7441;BME280;29616;51.950;8.572;2023-04-21T06:05:05;99937.22;;;14.03;100.00
7441;BME280;29616;51.950;8.572;2023-04-21T06:07:35;99914.41;;;13.94;100.00
7441;BME280;29616;51.950;8.572;2023-04-21T06:10:05;99931.09;;;13.93;100.00
7441;BME280;29616;51.950;8.572;2023-04-21T06:12:35;99925.22;;;13.96;100.00
7441;BME280;29616;51.950;8.572;2023-04-21T06:15:06;99925.31;;;14.49;100.00
7441;BME280;29616;51.950;8.572;2023-04-21T06:17:34;99927.56;;;14.91;100.00
7441;BME280;29616;51.950;8.572;2023-04-21T06:20:06;99922.72;;;15.31;100.00
7441;BME280;29616;51.950;8.572;2023-04-21T06:22:36;99929.06;;;14.79;100.00
7441;BME280;29616;51.950;8.572;2023-04-21T06:25:07;99928.00;;;14.57;100.00
7441;BME280;29616;51.950;8.572;2023-04-21T06:27:39;99919.78;;;14.19;100.00
7441;BME280;29616;51.950;8.572;2023-04-21T06:30:10;99916.72;;;13.83;100.00
7441;BME280;29616;51.950;8.572;2023-04-21T06:32:38;99912.66;;;13.63;100.00
7441;BME280;29616;51.950;8.572;2023-04-21T06:35:08;99911.03;;;13.29;100.00
7441;BME280;29616;51.950;8.572;2023-04-21T06:37:37;99914.63;;;13.85;100.00
7441;BME280;29616;51.950;8.572;2023-04-21T06:40:06;99914.66;;;14.16;100.00
7441;BME280;29616;51.950;8.572;2023-04-21T06:42:35;99916.34;;;14.55;100.00
7441;BME280;29616;51.950;8.572;2023-04-21T06:45:06;99912.72;;;15.52;100.00
7441;BME280;29616;51.950;8.572;2023-04-21T06:47:35;99913.47;;;16.55;100.00
7441;BME280;29616;51.950;8.572;2023-04-21T06:50:06;99912.13;;;16.93;100.00
7441;BME280;29616;51.950;8.572;2023-04-21T06:52:34;99918.53;;;17.43;100.00
7441;BME280;29616;51.950;8.572;2023-04-21T06:55:06;99922.00;;;17.30;100.00
7441;BME280;29616;51.950;8.572;2023-04-21T06:57:36;99909.78;;;18.49;100.00
7441;BME280;29616;51.950;8.572;2023-04-21T07:00:08;99914.06;;;18.71;100.00
7441;BME280;29616;51.950;8.572;2023-04-21T07:02:37;99923.47;;;18.83;100.00
7441;BME280;29616;51.950;8.572;2023-04-21T07:05:08;99922.09;;;18.46;100.00
7441;BME280;29616;51.950;8.572;2023-04-21T07:07:38;99921.81;;;19.34;100.00
7441;BME280;29616;51.950;8.572;2023-04-21T07:10:08;99925.66;;;19.66;100.00
7441;BME280;29616;51.950;8.572;2023-04-21T07:12:38;99924.19;;;19.64;100.00
7441;BME280;29616;51.950;8.572;2023-04-21T07:15:10;99918.09;;;20.06;100.00
7441;BME280;29616;51.950;8.572;2023-04-21T07:17:38;99919.50;;;20.35;100.00
7441;BME280;29616;51.950;8.572;2023-04-21T07:20:09;99915.91;;;20.15;100.00
7441;BME280;29616;51.950;8.572;2023-04-21T07:22:38;99917.97;;;19.62;100.00
7441;BME280;29616;51.950;8.572;2023-04-21T07:25:09;99917.25;;;19.99;100.00
7441;BME280;29616;51.950;8.572;2023-04-21T07:27:38;99915.34;;;21.26;100.00
7441;BME280;29616;51.950;8.572;2023-04-21T07:30:11;99920.84;;;20.95;100.00
7441;BME280;29616;51.950;8.572;2023-04-21T07:32:41;99921.81;;;21.45;99.68
7441;BME280;29616;51.950;8.572;2023-04-21T07:35:09;99918.16;;;20.88;100.00
7441;BME280;29616;51.950;8.572;2023-04-21T07:37:38;99920.81;;;20.19;100.00
7441;BME280;29616;51.950;8.572;2023-04-21T07:40:09;99922.94;;;21.06;100.00
7441;BME280;29616;51.950;8.572;2023-04-21T07:42:38;99919.00;;;21.20;100.00
7441;BME280;29616;51.950;8.572;2023-04-21T07:45:08;99922.13;;;21.30;100.00
7441;BME280;29616;51.950;8.572;2023-04-21T07:47:38;99907.09;;;21.62;92.80
7441;BME280;29616;51.950;8.572;2023-04-21T07:50:09;99910.53;;;21.08;100.00
7441;BME280;29616;51.950;8.572;2023-04-21T07:52:38;99918.91;;;21.02;100.00
7441;BME280;29616;51.950;8.572;2023-04-21T07:55:09;99919.28;;;19.53;100.00
7441;BME280;29616;51.950;8.572;2023-04-21T07:57:39;99933.19;;;18.53;100.00
7441;BME280;29616;51.950;8.572;2023-04-21T08:00:08;99924.03;;;18.05;100.00
7441;BME280;29616;51.950;8.572;2023-04-21T08:02:39;99920.22;;;18.12;100.00
7441;BME280;29616;51.950;8.572;2023-04-21T08:05:08;99919.75;;;18.02;100.00
7441;BME280;29616;51.950;8.572;2023-04-21T08:07:38;99927.91;;;17.76;100.00
7441;BME280;29616;51.950;8.572;2023-04-21T08:10:09;99929.00;;;17.82;100.00
7441;BME280;29616;51.950;8.572;2023-04-21T08:12:39;99921.28;;;17.71;100.00
7441;BME280;29616;51.950;8.572;2023-04-21T08:15:09;99917.69;;;17.49;100.00
7441;BME280;29616;51.950;8.572;2023-04-21T08:17:40;99907.59;;;17.56;100.00
7441;BME280;29616;51.950;8.572;2023-04-21T08:20:12;99906.00;;;17.75;100.00
7441;BME280;29616;51.950;8.572;2023-04-21T08:22:42;99915.53;;;18.06;100.00
7441;BME280;29616;51.950;8.572;2023-04-21T08:25:13;99898.03;;;17.93;100.00
7441;BME280;29616;51.950;8.572;2023-04-21T08:27:42;99908.41;;;17.56;100.00
7441;BME280;29616;51.950;8.572;2023-04-21T08:30:13;99910.50;;;17.82;100.00
7441;BME280;29616;51.950;8.572;2023-04-21T08:32:43;99906.22;;;18.21;100.00
7441;BME280;29616;51.950;8.572;2023-04-21T08:35:13;99912.47;;;18.36;100.00
7441;BME280;29616;51.950;8.572;2023-04-21T08:37:41;99900.41;;;18.02;100.00
7441;BME280;29616;51.950;8.572;2023-04-21T08:40:11;99905.78;;;18.17;100.00
7441;BME280;29616;51.950;8.572;2023-04-21T08:42:41;99902.97;;;18.04;100.00
7441;BME280;29616;51.950;8.572;2023-04-21T08:45:11;99904.88;;;18.03;100.00
7441;BME280;29616;51.950;8.572;2023-04-21T08:47:40;99910.03;;;18.13;100.00
7441;BME280;29616;51.950;8.572;2023-04-21T08:50:14;99901.88;;;17.98;100.00
7441;BME280;29616;51.950;8.572;2023-04-21T08:52:44;99896.47;;;18.31;100.00
7441;BME280;29616;51.950;8.572;2023-04-21T08:55:13;99891.13;;;19.56;100.00
7441;BME280;29616;51.950;8.572;2023-04-21T08:57:43;99900.13;;;21.29;100.00
7441;BME280;29616;51.950;8.572;2023-04-21T09:00:13;99883.50;;;22.08;97.95
7441;BME280;29616;51.950;8.572;2023-04-21T09:02:53;99881.22;;;22.82;94.32
7441;BME280;29616;51.950;8.572;2023-04-21T09:05:29;99887.50;;;23.19;82.20
7441;BME280;29616;51.950;8.572;2023-04-21T09:08:08;99883.19;;;23.58;82.10
7441;BME280;29616;51.950;8.572;2023-04-21T09:10:44;99883.38;;;23.22;79.52
7441;BME280;29616;51.950;8.572;2023-04-21T09:13:16;99883.88;;;22.77;81.85
7441;BME280;29616;51.950;8.572;2023-04-21T09:15:48;99875.59;;;22.23;90.49
7441;BME280;29616;51.950;8.572;2023-04-21T09:18:18;99878.09;;;22.13;88.78
7441;BME280;29616;51.950;8.572;2023-04-21T09:21:04;99878.00;;;22.01;92.52
7441;BME280;29616;51.950;8.572;2023-04-21T09:23:40;99891.13;;;22.78;86.65
7441;BME280;29616;51.950;8.572;2023-04-21T09:26:09;99871.94;;;22.88;83.64
7441;BME280;29616;51.950;8.572;2023-04-21T09:28:40;99890.53;;;23.18;78.50
7441;BME280;29616;51.950;8.572;2023-04-21T09:31:13;99888.44;;;23.13;82.69
7441;BME280;29616;51.950;8.572;2023-04-21T09:33:49;99860.84;;;23.12;76.60
7441;BME280;29616;51.950;8.572;2023-04-21T09:36:29;99864.97;;;23.32;78.71
7441;BME280;29616;51.950;8.572;2023-04-21T09:38:59;99871.44;;;23.68;74.74
7441;BME280;29616;51.950;8.572;2023-04-21T09:41:32;99866.38;;;23.00;74.67
7441;BME280;29616;51.950;8.572;2023-04-21T09:44:00;99880.63;;;22.32;79.60
7441;BME280;29616;51.950;8.572;2023-04-21T09:46:33;99879.06;;;21.82;85.91
7441;BME280;29616;51.950;8.572;2023-04-21T09:49:03;99865.88;;;22.32;82.82
7441;BME280;29616;51.950;8.572;2023-04-21T09:51:35;99866.06;;;23.20;79.22
7441;BME280;29616;51.950;8.572;2023-04-21T09:54:32;99865.09;;;22.55;82.11
7441;BME280;29616;51.950;8.572;2023-04-21T09:57:03;99859.81;;;22.35;85.73
7441;BME280;29616;51.950;8.572;2023-04-21T09:59:36;99849.75;;;22.34;89.02
7441;BME280;29616;51.950;8.572;2023-04-21T10:02:07;99854.91;;;23.20;79.85
7441;BME280;29616;51.950;8.572;2023-04-21T10:04:40;99854.59;;;21.91;86.63
7441;BME280;29616;51.950;8.572;2023-04-21T10:07:14;99852.03;;;21.71;92.45
7441;BME280;29616;51.950;8.572;2023-04-21T10:09:47;99827.59;;;21.05;99.06
7441;BME280;29616;51.950;8.572;2023-04-21T10:12:19;99816.41;;;20.94;98.03
7441;BME280;29616;51.950;8.572;2023-04-21T10:14:50;99845.97;;;20.50;100.00
7441;BME280;29616;51.950;8.572;2023-04-21T10:17:22;99846.31;;;20.29;100.00
7441;BME280;29616;51.950;8.572;2023-04-21T10:19:54;99845.84;;;20.70;100.00
7441;BME280;29616;51.950;8.572;2023-04-21T10:22:29;99838.97;;;21.04;100.00
7441;BME280;29616;51.950;8.572;2023-04-21T10:24:59;99825.66;;;20.81;100.00
7441;BME280;29616;51.950;8.572;2023-04-21T10:27:34;99833.44;;;21.90;96.55
7441;BME280;29616;51.950;8.572;2023-04-21T10:30:18;99827.22;;;21.69;97.05
7441;BME280;29616;51.950;8.572;2023-04-21T10:32:46;99799.56;;;22.41;92.30
7441;BME280;29616;51.950;8.572;2023-04-21T10:35:21;99821.22;;;22.09;93.59
7441;BME280;29616;51.950;8.572;2023-04-21T10:37:51;99818.34;;;22.15;95.08
7441;BME280;29616;51.950;8.572;2023-04-21T10:40:33;99819.31;;;22.69;90.15
7441;BME280;29616;51.950;8.572;2023-04-21T10:43:41;99805.03;;;22.17;91.47
7441;BME280;29616;51.950;8.572;2023-04-21T10:46:33;99803.19;;;21.93;82.92
7441;BME280;29616;51.950;8.572;2023-04-21T10:49:06;99801.56;;;21.49;84.41
7441;BME280;29616;51.950;8.572;2023-04-21T10:52:03;99798.59;;;22.35;78.94
7441;BME280;29616;51.950;8.572;2023-04-21T10:54:42;99786.72;;;22.69;79.55
7441;BME280;29616;51.950;8.572;2023-04-21T10:57:18;99779.94;;;22.06;80.99
7441;BME280;29616;51.950;8.572;2023-04-21T10:59:48;99789.66;;;22.74;77.55
7441;BME280;29616;51.950;8.572;2023-04-21T11:02:17;99775.75;;;23.67;69.82
7441;BME280;29616;51.950;8.572;2023-04-21T11:04:50;99758.84;;;23.85;69.66
7441;BME280;29616;51.950;8.572;2023-04-21T11:07:22;99774.56;;;24.43;65.31
7441;BME280;29616;51.950;8.572;2023-04-21T11:09:59;99786.91;;;23.32;65.86
7441;BME280;29616;51.950;8.572;2023-04-21T11:12:33;99777.03;;;24.56;62.73
7441;BME280;29616;51.950;8.572;2023-04-21T11:15:07;99766.44;;;24.58;60.88
7441;BME280;29616;51.950;8.572;2023-04-21T11:17:38;99769.16;;;24.25;60.42
7441;BME280;29616;51.950;8.572;2023-04-21T11:20:09;99776.94;;;24.23;60.11
7441;BME280;29616;51.950;8.572;2023-04-21T11:22:39;99775.19;;;23.93;59.42
7441;BME280;29616;51.950;8.572;2023-04-21T11:25:16;99758.25;;;24.68;58.36
7441;BME280;29616;51.950;8.572;2023-04-21T11:27:54;99744.19;;;24.63;56.39
7441;BME280;29616;51.950;8.572;2023-04-21T11:30:30;99756.47;;;23.66;56.75
7441;BME280;29616;51.950;8.572;2023-04-21T11:33:01;99740.31;;;24.07;55.96
7441;BME280;29616;51.950;8.572;2023-04-21T11:35:31;99745.72;;;23.11;56.77
7441;BME280;29616;51.950;8.572;2023-04-21T11:38:04;99732.72;;;22.70;57.23
7441;BME280;29616;51.950;8.572;2023-04-21T11:40:45;99750.75;;;22.68;57.83
7441;BME280;29616;51.950;8.572;2023-04-21T11:43:15;99736.38;;;23.06;56.72
7441;BME280;29616;51.950;8.572;2023-04-21T11:45:43;99740.13;;;23.00;56.65
7441;BME280;29616;51.950;8.572;2023-04-21T11:48:16;99726.44;;;22.86;57.02
7441;BME280;29616;51.950;8.572;2023-04-21T11:50:48;99738.44;;;23.22;55.08
7441;BME280;29616;51.950;8.572;2023-04-21T11:53:18;99719.53;;;23.12;54.90
7441;BME280;29616;51.950;8.572;2023-04-21T11:55:49;99713.81;;;23.19;54.60
7441;BME280;29616;51.950;8.572;2023-04-21T11:58:20;99713.50;;;23.78;53.51
7441;BME280;29616;51.950;8.572;2023-04-21T12:00:50;99731.44;;;23.82;51.73
7441;BME280;29616;51.950;8.572;2023-04-21T12:03:18;99729.56;;;24.11;52.25
7441;BME280;29616;51.950;8.572;2023-04-21T12:05:55;99698.28;;;24.26;50.53
7441;BME280;29616;51.950;8.572;2023-04-21T12:08:28;99706.78;;;24.64;50.76
7441;BME280;29616;51.950;8.572;2023-04-21T12:11:01;99705.97;;;24.35;50.02
7441;BME280;29616;51.950;8.572;2023-04-21T12:13:30;99711.97;;;24.27;49.33
7441;BME280;29616;51.950;8.572;2023-04-21T12:16:02;99714.53;;;24.29;47.42
7441;BME280;29616;51.950;8.572;2023-04-21T12:18:31;99698.47;;;25.02;48.82
7441;BME280;29616;51.950;8.572;2023-04-21T12:21:03;99692.94;;;25.62;46.83
7441;BME280;29616;51.950;8.572;2023-04-21T12:23:32;99679.81;;;25.63;44.87
7441;BME280;29616;51.950;8.572;2023-04-21T12:26:03;99693.78;;;25.63;45.12
7441;BME280;29616;51.950;8.572;2023-04-21T12:28:31;99679.06;;;25.94;44.30
7441;BME280;29616;51.950;8.572;2023-04-21T12:31:00;99700.94;;;25.97;43.37
7441;BME280;29616;51.950;8.572;2023-04-21T12:33:28;99675.59;;;25.05;44.39
7441;BME280;29616;51.950;8.572;2023-04-21T12:35:58;99691.72;;;25.37;44.84
7441;BME280;29616;51.950;8.572;2023-04-21T12:38:28;99666.28;;;25.00;44.45
7441;BME280;29616;51.950;8.572;2023-04-21T12:40:58;99650.91;;;25.57;44.17
7441;BME280;29616;51.950;8.572;2023-04-21T12:43:29;99648.47;;;25.66;43.71
7441;BME280;29616;51.950;8.572;2023-04-21T12:46:00;99672.78;;;25.87;43.65
7441;BME280;29616;51.950;8.572;2023-04-21T12:48:29;99668.25;;;26.03;42.74
7441;BME280;29616;51.950;8.572;2023-04-21T12:51:00;99654.75;;;26.21;42.12
7441;BME280;29616;51.950;8.572;2023-04-21T12:53:28;99667.44;;;26.07;41.73
7441;BME280;29616;51.950;8.572;2023-04-21T12:55:58;99653.38;;;25.75;41.89
7441;BME280;29616;51.950;8.572;2023-04-21T12:58:33;99661.06;;;24.53;42.96
7441;BME280;29616;51.950;8.572;2023-04-21T13:01:04;99667.94;;;23.61;44.38
7441;BME280;29616;51.950;8.572;2023-04-21T13:03:34;99659.47;;;23.05;47.26
7441;BME280;29616;51.950;8.572;2023-04-21T13:06:04;99653.03;;;22.92;47.64
7441;BME280;29616;51.950;8.572;2023-04-21T13:08:34;99661.72;;;23.19;46.95
7441;BME280;29616;51.950;8.572;2023-04-21T13:11:04;99661.72;;;24.10;45.68
7441;BME280;29616;51.950;8.572;2023-04-21T13:13:35;99665.44;;;23.48;46.67
7441;BME280;29616;51.950;8.572;2023-04-21T13:16:06;99642.88;;;22.63;47.37
7441;BME280;29616;51.950;8.572;2023-04-21T13:18:35;99650.59;;;22.84;46.98
7441;BME280;29616;51.950;8.572;2023-04-21T13:21:05;99648.09;;;23.34;47.02
7441;BME280;29616;51.950;8.572;2023-04-21T13:23:35;99646.31;;;24.41;45.15